createdAt,value
2022-12-11T00:00:24.536Z,22.2
2022-12-11T00:01:26.351Z,22.2
2022-12-11T00:02:28.060Z,22.2
2022-12-11T00:03:30.192Z,22.2
2022-12-11T00:04:32.320Z,22.2
2022-12-11T00:05:34.194Z,22.2
2022-12-11T00:06:36.006Z,22.2
2022-12-11T00:07:37.674Z,22.2
2022-12-11T00:08:39.449Z,22.2
2022-12-11T00:09:41.280Z,22.2
2022-12-11T00:10:42.979Z,22.2
2022-12-11T00:11:44.906Z,22.2
2022-12-11T00:12:46.695Z,22.2
2022-12-11T00:13:48.562Z,22.2
2022-12-11T00:14:50.313Z,22.2
2022-12-11T00:15:52.056Z,22.2
2022-12-11T00:16:53.694Z,22.2
2022-12-11T00:17:55.804Z,22.1
2022-12-11T00:18:57.453Z,22.1
2022-12-11T00:19:59.245Z,22.1
2022-12-11T00:21:01.113Z,22.1
2022-12-11T00:22:03.005Z,22.1
2022-12-11T00:23:04.884Z,22.1
2022-12-11T00:24:06.720Z,22.1
2022-12-11T00:25:08.683Z,22.1
2022-12-11T00:26:12.201Z,22.1
2022-12-11T00:27:14.048Z,22.1
2022-12-11T00:28:15.874Z,22.1
2022-12-11T00:29:17.533Z,22.1
2022-12-11T00:30:19.298Z,22.1
2022-12-11T00:31:23.940Z,22.1
2022-12-11T00:32:28.290Z,22.1
2022-12-11T00:33:38.744Z,22.1
2022-12-11T00:34:40.485Z,22.1
2022-12-11T00:35:42.217Z,22.1
2022-12-11T00:36:44.070Z,22.1
2022-12-11T00:37:46.039Z,22.1
2022-12-11T00:38:47.679Z,22.1
2022-12-11T00:39:49.381Z,22.1
2022-12-11T00:40:51.114Z,22.1
2022-12-11T00:41:52.904Z,22.1
2022-12-11T00:42:54.701Z,22.1
2022-12-11T00:43:59.412Z,22.1
2022-12-11T00:45:01.172Z,22.1
2022-12-11T00:46:02.976Z,22.1
2022-12-11T00:47:05.072Z,22.1
2022-12-11T00:48:09.687Z,22.1
2022-12-11T00:49:11.337Z,22.1
2022-12-11T00:50:13.097Z,22.1
2022-12-11T00:51:17.462Z,22.1
2022-12-11T00:52:19.256Z,22.1
2022-12-11T00:53:21.158Z,22.1
2022-12-11T00:54:22.819Z,22.1
2022-12-11T00:55:24.586Z,22.1
2022-12-11T00:56:26.358Z,22.1
2022-12-11T00:57:28.253Z,22.1
2022-12-11T00:58:30.036Z,22
2022-12-11T00:59:31.849Z,22
2022-12-11T01:00:33.517Z,22
2022-12-11T01:01:35.595Z,22
2022-12-11T01:02:37.935Z,22
2022-12-11T01:03:39.874Z,22
2022-12-11T01:04:41.648Z,22
2022-12-11T01:05:43.531Z,22
2022-12-11T01:06:45.409Z,22
2022-12-11T01:07:47.131Z,22
2022-12-11T01:08:49.114Z,22
2022-12-11T01:09:50.861Z,22
2022-12-11T01:10:52.719Z,22
2022-12-11T01:11:54.820Z,22
2022-12-11T01:12:56.624Z,22
2022-12-11T01:13:58.364Z,22
2022-12-11T01:15:00.077Z,22
2022-12-11T01:16:01.885Z,22
2022-12-11T01:17:03.748Z,22
2022-12-11T01:18:05.867Z,22
2022-12-11T01:19:07.521Z,22
2022-12-11T01:20:09.230Z,22
2022-12-11T01:21:11.113Z,22
2022-12-11T01:22:12.876Z,22
2022-12-11T01:23:14.615Z,22
2022-12-11T01:24:16.372Z,22
2022-12-11T01:25:18.127Z,21.9
2022-12-11T01:26:19.732Z,22
2022-12-11T01:27:21.427Z,22
2022-12-11T01:28:23.316Z,21.9
2022-12-11T01:29:25.096Z,21.9
2022-12-11T01:30:27.022Z,21.9
2022-12-11T01:31:29.206Z,21.9
2022-12-11T01:32:30.962Z,22
2022-12-11T01:33:32.763Z,21.9
2022-12-11T01:34:34.632Z,21.9
2022-12-11T01:35:36.365Z,21.9
2022-12-11T01:36:38.239Z,21.9
2022-12-11T01:37:40.286Z,21.9
2022-12-11T01:38:42.105Z,21.9
2022-12-11T01:39:43.929Z,21.9
2022-12-11T01:40:45.643Z,21.9
2022-12-11T01:41:47.300Z,21.9
2022-12-11T01:42:49.080Z,21.9
2022-12-11T01:43:50.900Z,21.9
2022-12-11T01:44:52.564Z,21.9
2022-12-11T01:45:54.264Z,21.9
2022-12-11T01:46:56.241Z,21.9
2022-12-11T01:47:57.946Z,21.9
2022-12-11T01:48:59.663Z,21.9
2022-12-11T01:50:01.283Z,21.9
2022-12-11T01:51:03.025Z,21.9
2022-12-11T01:52:04.764Z,21.9
2022-12-11T01:53:06.556Z,21.9
2022-12-11T01:54:08.290Z,21.9
2022-12-11T01:55:10.629Z,21.9
2022-12-11T01:56:13.432Z,21.9
2022-12-11T01:57:15.245Z,21.9
2022-12-11T01:58:16.977Z,21.9
2022-12-11T01:59:18.656Z,21.9
2022-12-11T02:00:21.524Z,21.9
2022-12-11T02:01:23.360Z,21.9
2022-12-11T02:02:25.519Z,21.9
2022-12-11T02:03:27.682Z,21.9
2022-12-11T02:04:29.356Z,21.8
2022-12-11T02:05:30.988Z,21.8
2022-12-11T02:06:32.661Z,21.8
2022-12-11T02:07:34.375Z,21.8
2022-12-11T02:08:36.276Z,21.8
2022-12-11T02:09:38.124Z,21.8
2022-12-11T02:10:39.940Z,21.8
2022-12-11T02:11:41.576Z,21.8
2022-12-11T02:12:43.310Z,21.8
2022-12-11T02:13:45.117Z,21.8
2022-12-11T02:14:46.870Z,21.8
2022-12-11T02:15:48.554Z,21.8
2022-12-11T02:16:50.195Z,21.8
2022-12-11T02:17:51.865Z,21.8
2022-12-11T02:18:53.551Z,21.8
2022-12-11T02:19:55.327Z,21.8
2022-12-11T02:20:57.019Z,21.8
2022-12-11T02:21:58.824Z,21.8
2022-12-11T02:23:00.556Z,21.8
2022-12-11T02:24:02.430Z,21.8
2022-12-11T02:25:04.228Z,21.8
2022-12-11T02:26:06.002Z,21.8
2022-12-11T02:27:07.891Z,21.8
2022-12-11T02:28:09.668Z,21.8
2022-12-11T02:29:11.507Z,21.8
2022-12-11T02:30:16.102Z,21.8
2022-12-11T02:31:17.903Z,21.8
2022-12-11T02:32:20.071Z,21.8
2022-12-11T02:33:22.161Z,21.8
2022-12-11T02:34:23.803Z,21.8
2022-12-11T02:35:25.539Z,21.8
2022-12-11T02:36:27.182Z,21.7
2022-12-11T02:37:28.917Z,21.7
2022-12-11T02:38:30.798Z,21.7
2022-12-11T02:39:32.845Z,21.7
2022-12-11T02:40:34.519Z,21.7
2022-12-11T02:41:36.311Z,21.7
2022-12-11T02:42:37.922Z,21.8
2022-12-11T02:43:39.645Z,21.7
2022-12-11T02:44:41.288Z,21.7
2022-12-11T02:45:43.192Z,21.7
2022-12-11T02:46:45.173Z,21.7
2022-12-11T02:47:47.007Z,21.7
2022-12-11T02:48:48.798Z,21.7
2022-12-11T02:49:50.694Z,21.7
2022-12-11T02:50:52.574Z,21.7
2022-12-11T02:51:54.430Z,21.7
2022-12-11T02:52:56.284Z,21.7
2022-12-11T02:53:58.017Z,21.8
2022-12-11T02:54:59.801Z,21.8
2022-12-11T02:56:01.548Z,21.8
2022-12-11T02:57:03.269Z,21.8
2022-12-11T02:58:04.980Z,21.8
2022-12-11T02:59:06.755Z,21.8
2022-12-11T03:00:08.507Z,21.8
2022-12-11T03:01:10.293Z,21.8
2022-12-11T03:02:12.353Z,21.8
2022-12-11T03:03:14.465Z,21.8
2022-12-11T03:04:16.213Z,21.8
2022-12-11T03:05:18.050Z,21.8
2022-12-11T03:06:19.911Z,21.8
2022-12-11T03:07:21.667Z,21.8
2022-12-11T03:08:23.504Z,21.8
2022-12-11T03:09:25.664Z,21.8
2022-12-11T03:10:27.416Z,21.8
2022-12-11T03:11:29.079Z,21.8
2022-12-11T03:12:30.817Z,21.8
2022-12-11T03:13:32.645Z,21.8
2022-12-11T03:14:34.306Z,21.8
2022-12-11T03:15:36.216Z,21.8
2022-12-11T03:16:37.982Z,21.8
2022-12-11T03:17:40.278Z,21.8
2022-12-11T03:18:42.009Z,21.8
2022-12-11T03:19:43.845Z,21.8
2022-12-11T03:20:45.589Z,21.8
2022-12-11T03:21:47.203Z,21.8
2022-12-11T03:22:48.892Z,21.8
2022-12-11T03:23:50.609Z,21.8
2022-12-11T03:24:52.303Z,21.8
2022-12-11T03:25:54.140Z,21.8
2022-12-11T03:26:56.604Z,21.8
2022-12-11T03:28:02.967Z,21.8
2022-12-11T03:29:04.658Z,21.8
2022-12-11T03:30:06.467Z,21.8
2022-12-11T03:31:08.300Z,21.8
2022-12-11T03:32:10.401Z,21.8
2022-12-11T03:33:12.370Z,21.8
2022-12-11T03:34:14.160Z,21.8
2022-12-11T03:35:16.080Z,21.8
2022-12-11T03:36:18.203Z,21.8
2022-12-11T03:37:19.899Z,21.8
2022-12-11T03:38:21.723Z,21.8
2022-12-11T03:39:23.539Z,21.8
2022-12-11T03:40:25.197Z,21.8
2022-12-11T03:41:27.237Z,21.8
2022-12-11T03:42:29.114Z,21.8
2022-12-11T03:43:30.823Z,21.8
2022-12-11T03:44:32.539Z,21.8
2022-12-11T03:45:34.421Z,21.8
2022-12-11T03:46:36.242Z,21.8
2022-12-11T03:47:38.000Z,21.8
2022-12-11T03:48:39.767Z,21.8
2022-12-11T03:49:41.432Z,21.8
2022-12-11T03:50:43.160Z,21.7
2022-12-11T03:51:44.928Z,21.8
2022-12-11T03:52:46.814Z,21.7
2022-12-11T03:53:48.712Z,21.7
2022-12-11T03:54:50.525Z,21.8
2022-12-11T03:55:52.349Z,21.7
2022-12-11T03:56:54.197Z,21.7
2022-12-11T03:57:56.005Z,21.7
2022-12-11T03:58:57.790Z,21.7
2022-12-11T03:59:59.741Z,21.7
2022-12-11T04:01:01.654Z,21.7
2022-12-11T04:02:03.554Z,21.7
2022-12-11T04:03:09.630Z,21.7
2022-12-11T04:04:16.278Z,21.7
2022-12-11T04:05:18.380Z,21.7
2022-12-11T04:06:20.221Z,21.8
2022-12-11T04:07:22.134Z,21.7
2022-12-11T04:08:24.110Z,21.7
2022-12-11T04:09:26.286Z,21.8
2022-12-11T04:10:27.959Z,21.8
2022-12-11T04:11:29.572Z,21.7
2022-12-11T04:12:31.498Z,21.7
2022-12-11T04:13:33.303Z,21.8
2022-12-11T04:14:35.066Z,21.8
2022-12-11T04:15:37.032Z,21.7
2022-12-11T04:16:39.131Z,21.8
2022-12-11T04:17:40.813Z,21.8
2022-12-11T04:18:42.426Z,21.8
2022-12-11T04:19:44.092Z,21.8
2022-12-11T04:20:45.820Z,21.8
2022-12-11T04:21:47.582Z,21.8
2022-12-11T04:22:49.396Z,21.8
2022-12-11T04:23:51.156Z,21.8
2022-12-11T04:24:55.751Z,21.8
2022-12-11T04:25:57.425Z,21.8
2022-12-11T04:26:59.096Z,21.8
2022-12-11T04:28:01.056Z,21.8
2022-12-11T04:29:02.938Z,21.8
2022-12-11T04:30:04.823Z,21.8
2022-12-11T04:31:06.672Z,21.8
2022-12-11T04:32:08.727Z,21.8
2022-12-11T04:33:10.485Z,21.8
2022-12-11T04:34:12.163Z,21.8
2022-12-11T04:35:13.988Z,21.8
2022-12-11T04:36:15.698Z,21.8
2022-12-11T04:37:17.463Z,21.8
2022-12-11T04:38:19.147Z,21.8
2022-12-11T04:39:20.911Z,21.8
2022-12-11T04:40:22.710Z,21.8
2022-12-11T04:41:24.454Z,21.8
2022-12-11T04:42:26.194Z,21.8
2022-12-11T04:43:27.909Z,21.8
2022-12-11T04:44:29.723Z,21.8
2022-12-11T04:45:37.494Z,21.8
2022-12-11T04:46:39.364Z,21.8
2022-12-11T04:47:41.394Z,21.8
2022-12-11T04:48:43.143Z,21.8
2022-12-11T04:49:44.839Z,21.8
2022-12-11T04:50:46.578Z,21.8
2022-12-11T04:51:48.442Z,21.8
2022-12-11T04:52:50.195Z,21.8
2022-12-11T04:53:51.907Z,21.8
2022-12-11T04:54:53.686Z,21.8
2022-12-11T04:55:55.397Z,21.8
2022-12-11T04:56:57.112Z,21.8
2022-12-11T04:57:58.765Z,21.8
2022-12-11T04:59:00.503Z,21.8
2022-12-11T05:00:02.219Z,21.8
2022-12-11T05:01:04.007Z,21.8
2022-12-11T05:02:05.790Z,21.8
2022-12-11T05:03:07.756Z,21.8
2022-12-11T05:04:09.864Z,21.8
2022-12-11T05:05:11.910Z,21.8
2022-12-11T05:06:15.399Z,21.7
2022-12-11T05:07:17.037Z,21.7
2022-12-11T05:08:18.728Z,21.7
2022-12-11T05:09:20.725Z,21.7
2022-12-11T05:10:22.446Z,21.7
2022-12-11T05:11:24.423Z,21.7
2022-12-11T05:12:26.295Z,21.7
2022-12-11T05:13:28.041Z,21.6
2022-12-11T05:14:29.798Z,21.6
2022-12-11T05:15:31.620Z,21.6
2022-12-11T05:16:34.007Z,21.6
2022-12-11T05:17:35.771Z,21.6
2022-12-11T05:18:37.703Z,21.6
2022-12-11T05:19:39.452Z,21.6
2022-12-11T05:20:41.141Z,21.6
2022-12-11T05:21:42.965Z,21.6
2022-12-11T05:22:44.706Z,21.6
2022-12-11T05:23:46.436Z,21.6
2022-12-11T05:24:48.207Z,21.6
2022-12-11T05:25:50.107Z,21.6
2022-12-11T05:26:51.814Z,21.6
2022-12-11T05:27:53.547Z,21.6
2022-12-11T05:28:58.043Z,21.6
2022-12-11T05:29:59.897Z,21.6
2022-12-11T05:31:01.886Z,21.6
2022-12-11T05:32:04.015Z,21.6
2022-12-11T05:33:05.758Z,21.6
2022-12-11T05:34:07.538Z,21.6
2022-12-11T05:35:09.554Z,21.6
2022-12-11T05:36:12.537Z,21.6
2022-12-11T05:37:14.349Z,21.6
2022-12-11T05:38:16.133Z,21.6
2022-12-11T05:39:17.986Z,21.6
2022-12-11T05:40:19.725Z,21.6
2022-12-11T05:41:21.583Z,21.5
2022-12-11T05:42:28.509Z,21.5
2022-12-11T05:43:30.899Z,21.5
2022-12-11T05:44:32.661Z,21.5
2022-12-11T05:45:34.452Z,21.5
2022-12-11T05:46:36.246Z,21.6
2022-12-11T05:47:38.315Z,21.6
2022-12-11T05:48:40.303Z,21.6
2022-12-11T05:49:42.031Z,21.6
2022-12-11T05:50:43.673Z,21.5
2022-12-11T05:51:45.459Z,21.5
2022-12-11T05:52:50.091Z,21.5
2022-12-11T05:53:51.870Z,21.5
2022-12-11T05:54:53.630Z,21.5
2022-12-11T05:55:55.518Z,21.5
2022-12-11T05:56:57.421Z,21.5
2022-12-11T05:57:59.060Z,21.5
2022-12-11T05:59:00.988Z,21.5
2022-12-11T06:00:02.660Z,21.5
2022-12-11T06:01:04.511Z,21.5
2022-12-11T06:02:06.388Z,21.5
2022-12-11T06:03:08.982Z,21.5
2022-12-11T06:04:11.361Z,21.5
2022-12-11T06:05:13.396Z,21.5
2022-12-11T06:06:15.499Z,21.5
2022-12-11T06:07:17.347Z,21.5
2022-12-11T06:08:19.064Z,21.5
2022-12-11T06:09:21.261Z,21.5
2022-12-11T06:10:23.009Z,21.5
2022-12-11T06:11:24.807Z,21.5
2022-12-11T06:12:26.585Z,21.5
2022-12-11T06:13:28.366Z,21.5
2022-12-11T06:14:30.160Z,21.5
2022-12-11T06:15:32.043Z,21.5
2022-12-11T06:16:33.898Z,21.5
2022-12-11T06:17:36.204Z,21.5
2022-12-11T06:18:38.012Z,21.5
2022-12-11T06:19:39.766Z,21.5
2022-12-11T06:20:41.558Z,21.5
2022-12-11T06:21:43.370Z,21.5
2022-12-11T06:22:45.125Z,21.5
2022-12-11T06:23:46.944Z,21.5
2022-12-11T06:24:48.703Z,21.5
2022-12-11T06:25:50.518Z,21.5
2022-12-11T06:26:52.419Z,21.5
2022-12-11T06:27:54.178Z,21.5
2022-12-11T06:28:56.046Z,21.5
2022-12-11T06:29:57.952Z,21.5
2022-12-11T06:30:59.802Z,21.5
2022-12-11T06:32:01.759Z,21.5
2022-12-11T06:33:04.194Z,21.5
2022-12-11T06:34:05.882Z,21.5
2022-12-11T06:35:07.743Z,21.5
2022-12-11T06:36:10.417Z,21.5
2022-12-11T06:37:12.135Z,21.5
2022-12-11T06:38:13.833Z,21.5
2022-12-11T06:39:18.627Z,21.5
2022-12-11T06:40:20.355Z,21.6
2022-12-11T06:41:22.100Z,21.6
2022-12-11T06:42:23.914Z,21.6
2022-12-11T06:43:25.586Z,21.6
2022-12-11T06:44:27.355Z,21.6
2022-12-11T06:45:29.250Z,21.6
2022-12-11T06:46:31.370Z,21.5
2022-12-11T06:47:33.303Z,21.5
2022-12-11T06:48:35.175Z,21.5
2022-12-11T06:49:36.893Z,21.5
2022-12-11T06:50:38.716Z,21.5
2022-12-11T06:51:40.587Z,21.5
2022-12-11T06:52:42.584Z,21.6
2022-12-11T06:53:44.500Z,21.6
2022-12-11T06:54:46.239Z,21.6
2022-12-11T06:55:47.958Z,21.6
2022-12-11T06:56:49.836Z,21.6
2022-12-11T06:57:51.942Z,21.6
2022-12-11T06:58:53.881Z,21.6
2022-12-11T06:59:55.597Z,21.5
2022-12-11T07:00:57.260Z,21.5
2022-12-11T07:01:59.216Z,21.6
2022-12-11T07:03:01.520Z,21.6
2022-12-11T07:04:03.364Z,21.6
2022-12-11T07:05:05.249Z,21.6
2022-12-11T07:06:07.128Z,21.6
2022-12-11T07:07:08.946Z,21.6
2022-12-11T07:08:10.773Z,21.6
2022-12-11T07:09:12.772Z,21.6
2022-12-11T07:10:14.509Z,21.6
2022-12-11T07:11:16.328Z,21.6
2022-12-11T07:12:18.016Z,21.6
2022-12-11T07:13:19.660Z,21.6
2022-12-11T07:14:21.414Z,21.6
2022-12-11T07:15:23.156Z,21.7
2022-12-11T07:16:25.048Z,21.7
2022-12-11T07:17:27.141Z,21.7
2022-12-11T07:18:29.033Z,21.7
2022-12-11T07:19:30.864Z,21.7
2022-12-11T07:20:32.694Z,21.7
2022-12-11T07:21:34.392Z,21.7
2022-12-11T07:22:37.592Z,21.7
2022-12-11T07:23:48.409Z,21.7
2022-12-11T07:24:50.227Z,21.8
2022-12-11T07:25:52.114Z,21.8
2022-12-11T07:26:53.865Z,21.8
2022-12-11T07:27:55.573Z,21.8
2022-12-11T07:28:57.444Z,21.8
2022-12-11T07:29:59.147Z,21.8
2022-12-11T07:31:00.984Z,21.8
2022-12-11T07:32:02.810Z,21.8
2022-12-11T07:33:05.060Z,21.8
2022-12-11T07:34:06.993Z,21.8
2022-12-11T07:35:09.011Z,21.8
2022-12-11T07:36:12.217Z,21.8
2022-12-11T07:37:13.985Z,21.8
2022-12-11T07:38:15.711Z,21.8
2022-12-11T07:39:17.462Z,21.8
2022-12-11T07:40:19.242Z,21.8
2022-12-11T07:41:20.838Z,21.8
2022-12-11T07:42:22.612Z,21.8
2022-12-11T07:43:24.347Z,21.8
2022-12-11T07:44:26.095Z,21.8
2022-12-11T07:45:27.992Z,21.8
2022-12-11T07:46:30.111Z,21.8
2022-12-11T07:47:31.969Z,21.7
2022-12-11T07:48:33.751Z,21.7
2022-12-11T07:49:38.692Z,21.7
2022-12-11T07:50:40.420Z,21.8
2022-12-11T07:51:42.165Z,21.8
2022-12-11T07:52:44.101Z,21.8
2022-12-11T07:53:46.027Z,21.8
2022-12-11T07:54:47.744Z,21.8
2022-12-11T07:55:49.448Z,21.8
2022-12-11T07:56:53.637Z,21.8
2022-12-11T07:57:55.899Z,21.8
2022-12-11T07:58:57.655Z,21.8
2022-12-11T07:59:59.383Z,21.8
2022-12-11T08:01:01.089Z,21.8
2022-12-11T08:02:03.005Z,21.9
2022-12-11T08:03:04.926Z,21.9
2022-12-11T08:04:06.517Z,21.9
2022-12-11T08:05:08.719Z,21.9
2022-12-11T08:06:12.151Z,21.9
2022-12-11T08:07:14.002Z,21.9
2022-12-11T08:08:15.765Z,21.9
2022-12-11T08:09:21.191Z,21.9
2022-12-11T08:10:23.225Z,21.9
2022-12-11T08:11:25.154Z,21.9
2022-12-11T08:12:26.948Z,21.9
2022-12-11T08:13:28.920Z,21.9
2022-12-11T08:14:30.728Z,21.9
2022-12-11T08:15:32.441Z,21.9
2022-12-11T08:16:34.331Z,21.9
2022-12-11T08:17:39.955Z,21.9
2022-12-11T08:18:42.099Z,21.9
2022-12-11T08:19:43.850Z,21.9
2022-12-11T08:20:45.621Z,21.9
2022-12-11T08:21:47.360Z,21.9
2022-12-11T08:22:49.174Z,21.9
2022-12-11T08:24:01.667Z,21.9
2022-12-11T08:25:03.522Z,21.9
2022-12-11T08:26:05.207Z,21.9
2022-12-11T08:27:06.961Z,21.9
2022-12-11T08:28:08.790Z,21.9
2022-12-11T08:29:10.579Z,21.9
2022-12-11T08:30:12.383Z,21.9
2022-12-11T08:31:14.335Z,21.9
2022-12-11T08:32:16.648Z,21.9
2022-12-11T08:33:18.546Z,21.9
2022-12-11T08:34:20.218Z,21.9
2022-12-11T08:35:21.887Z,21.9
2022-12-11T08:36:29.798Z,21.9
2022-12-11T08:37:31.705Z,21.9
2022-12-11T08:38:33.496Z,21.9
2022-12-11T08:39:35.319Z,21.9
2022-12-11T08:40:37.045Z,21.9
2022-12-11T08:41:38.797Z,21.9
2022-12-11T08:42:40.516Z,21.9
2022-12-11T08:43:42.402Z,21.9
2022-12-11T08:44:44.118Z,21.9
2022-12-11T08:45:45.848Z,21.9
2022-12-11T08:46:47.819Z,21.9
2022-12-11T08:47:49.638Z,21.9
2022-12-11T08:48:51.512Z,21.9
2022-12-11T08:49:56.331Z,21.9
2022-12-11T08:50:58.246Z,21.9
2022-12-11T08:52:00.149Z,21.9
2022-12-11T08:53:01.841Z,21.9
2022-12-11T08:54:03.736Z,21.9
2022-12-11T08:55:05.637Z,21.9
2022-12-11T08:56:07.442Z,21.9
2022-12-11T08:57:09.189Z,21.9
2022-12-11T08:58:10.924Z,21.9
2022-12-11T08:59:12.781Z,21.9
2022-12-11T09:00:14.452Z,21.9
2022-12-11T09:01:16.389Z,21.9
2022-12-11T09:02:18.339Z,21.9
2022-12-11T09:03:20.159Z,21.9
2022-12-11T09:04:21.853Z,21.9
2022-12-11T09:05:23.499Z,21.9
2022-12-11T09:06:25.189Z,21.9
2022-12-11T09:07:26.940Z,21.9
2022-12-11T09:08:28.761Z,21.9
2022-12-11T09:09:30.967Z,21.9
2022-12-11T09:10:32.824Z,21.9
2022-12-11T09:11:34.683Z,21.9
2022-12-11T09:12:36.421Z,21.9
2022-12-11T09:13:38.055Z,21.9
2022-12-11T09:14:39.919Z,21.9
2022-12-11T09:15:41.748Z,21.9
2022-12-11T09:16:43.878Z,21.9
2022-12-11T09:17:45.616Z,21.9
2022-12-11T09:18:47.234Z,22
2022-12-11T09:19:49.060Z,22
2022-12-11T09:20:50.784Z,22
2022-12-11T09:21:52.511Z,22
2022-12-11T09:22:54.318Z,22
2022-12-11T09:23:56.177Z,22
2022-12-11T09:24:58.005Z,22
2022-12-11T09:25:59.743Z,22
2022-12-11T09:27:01.582Z,22
2022-12-11T09:28:03.349Z,22
2022-12-11T09:29:05.105Z,22
2022-12-11T09:30:06.882Z,22
2022-12-11T09:31:08.697Z,22
2022-12-11T09:32:10.745Z,22
2022-12-11T09:33:12.559Z,22
2022-12-11T09:34:14.549Z,22
2022-12-11T09:35:16.403Z,22
2022-12-11T09:36:18.117Z,22
2022-12-11T09:37:19.945Z,22
2022-12-11T09:38:21.756Z,21.9
2022-12-11T09:39:23.705Z,21.9
2022-12-11T09:40:25.349Z,21.9
2022-12-11T09:41:27.287Z,21.9
2022-12-11T09:42:29.049Z,21.9
2022-12-11T09:43:30.746Z,21.9
2022-12-11T09:44:32.473Z,21.9
2022-12-11T09:45:34.292Z,21.9
2022-12-11T09:46:36.148Z,21.9
2022-12-11T09:47:38.339Z,21.9
2022-12-11T09:48:40.135Z,21.9
2022-12-11T09:49:41.937Z,22
2022-12-11T09:50:43.743Z,21.9
2022-12-11T09:51:45.632Z,21.9
2022-12-11T09:52:47.389Z,21.9
2022-12-11T09:53:49.240Z,21.9
2022-12-11T09:54:51.223Z,21.9
2022-12-11T09:55:52.990Z,21.9
2022-12-11T09:56:54.881Z,21.9
2022-12-11T09:57:59.431Z,21.9
2022-12-11T09:59:01.121Z,21.9
2022-12-11T10:00:05.065Z,21.9
2022-12-11T10:01:07.736Z,21.9
2022-12-11T10:02:09.885Z,21.9
2022-12-11T10:03:11.983Z,21.9
2022-12-11T10:04:13.756Z,21.9
2022-12-11T10:05:15.473Z,21.9
2022-12-11T10:06:17.145Z,21.9
2022-12-11T10:07:18.876Z,21.9
2022-12-11T10:08:20.600Z,21.9
2022-12-11T10:09:22.578Z,21.9
2022-12-11T10:10:24.393Z,21.9
2022-12-11T10:11:26.165Z,21.9
2022-12-11T10:12:27.933Z,21.9
2022-12-11T10:13:29.661Z,21.8
2022-12-11T10:14:31.531Z,21.9
2022-12-11T10:15:33.728Z,21.9
2022-12-11T10:16:35.724Z,21.9
2022-12-11T10:17:37.396Z,21.9
2022-12-11T10:18:39.137Z,21.9
2022-12-11T10:19:40.984Z,21.9
2022-12-11T10:20:42.832Z,21.9
2022-12-11T10:21:44.580Z,21.9
2022-12-11T10:22:46.336Z,21.9
2022-12-11T10:23:48.073Z,21.9
2022-12-11T10:26:21.791Z,21.9
2022-12-11T10:27:23.577Z,21.9
2022-12-11T10:28:25.463Z,21.9
2022-12-11T10:29:27.214Z,21.9
2022-12-11T10:30:33.022Z,21.9
2022-12-11T10:31:36.454Z,21.9
2022-12-11T10:32:38.772Z,21.9
2022-12-11T10:33:40.587Z,21.9
2022-12-11T10:34:42.232Z,21.8
2022-12-11T10:35:43.979Z,21.8
2022-12-11T10:36:46.737Z,21.8
2022-12-11T10:37:48.487Z,21.8
2022-12-11T10:38:50.212Z,21.8
2022-12-11T10:39:52.022Z,21.9
2022-12-11T10:40:53.717Z,21.9
2022-12-11T10:41:55.678Z,21.9
2022-12-11T10:42:57.420Z,21.9
2022-12-11T10:43:59.089Z,21.9
2022-12-11T10:45:00.870Z,21.8
2022-12-11T10:46:02.604Z,21.8
2022-12-11T10:47:04.612Z,21.8
2022-12-11T10:48:06.471Z,21.8
2022-12-11T10:49:08.117Z,21.9
2022-12-11T10:50:09.922Z,21.9
2022-12-11T10:51:11.729Z,21.9
2022-12-11T10:52:13.610Z,21.9
2022-12-11T10:53:15.400Z,21.9
2022-12-11T10:54:17.249Z,21.9
2022-12-11T10:55:19.145Z,21.9
2022-12-11T10:56:21.120Z,21.9
2022-12-11T10:57:22.860Z,21.9
2022-12-11T10:58:24.670Z,21.9
2022-12-11T10:59:26.536Z,21.9
2022-12-11T11:00:28.390Z,21.9
2022-12-11T11:01:30.272Z,21.9
2022-12-11T11:02:32.486Z,21.9
2022-12-11T11:03:34.800Z,21.9
2022-12-11T11:04:36.576Z,21.9
2022-12-11T11:05:38.252Z,21.9
2022-12-11T11:06:40.053Z,21.9
2022-12-11T11:07:41.946Z,21.9
2022-12-11T11:08:43.659Z,21.9
2022-12-11T11:09:45.437Z,21.9
2022-12-11T11:10:47.079Z,21.9
2022-12-11T11:11:52.019Z,21.9
2022-12-11T11:12:53.954Z,21.9
2022-12-11T11:13:55.681Z,21.9
2022-12-11T11:14:57.520Z,21.9
2022-12-11T11:15:59.366Z,21.9
2022-12-11T11:17:01.389Z,21.9
2022-12-11T11:18:03.017Z,21.9
2022-12-11T11:19:04.734Z,21.8
2022-12-11T11:20:06.480Z,21.8
2022-12-11T11:21:08.213Z,21.8
2022-12-11T11:22:09.929Z,21.8
2022-12-11T11:23:11.719Z,21.8
2022-12-11T11:24:13.435Z,21.8
2022-12-11T11:25:15.194Z,21.8
2022-12-11T11:26:17.162Z,21.8
2022-12-11T11:27:18.997Z,21.8
2022-12-11T11:28:23.805Z,21.8
2022-12-11T11:29:25.464Z,21.8
2022-12-11T11:30:27.310Z,21.8
2022-12-11T11:31:29.271Z,21.8
2022-12-11T11:32:31.590Z,21.8
2022-12-11T11:33:33.378Z,21.8
2022-12-11T11:34:35.126Z,21.8
2022-12-11T11:35:39.054Z,21.8
2022-12-11T11:36:47.576Z,21.8
2022-12-11T11:37:49.382Z,21.8
2022-12-11T11:38:51.037Z,21.8
2022-12-11T11:39:52.800Z,21.8
2022-12-11T11:40:57.084Z,21.8
2022-12-11T11:42:16.647Z,21.9
2022-12-11T11:43:18.405Z,21.9
2022-12-11T11:44:20.193Z,21.9
2022-12-11T11:45:22.068Z,21.9
2022-12-11T11:46:23.768Z,21.8
2022-12-11T11:47:26.004Z,21.9
2022-12-11T11:48:27.751Z,21.9
2022-12-11T11:49:32.391Z,21.9
2022-12-11T11:50:37.006Z,21.9
2022-12-11T11:51:38.710Z,21.8
2022-12-11T11:52:40.427Z,21.8
2022-12-11T11:53:42.227Z,21.8
2022-12-11T11:54:43.998Z,21.8
2022-12-11T11:55:45.706Z,21.8
2022-12-11T11:56:47.389Z,21.8
2022-12-11T11:57:49.103Z,21.8
2022-12-11T11:58:51.010Z,21.8
2022-12-11T11:59:52.933Z,21.8
2022-12-11T12:00:54.666Z,21.8
2022-12-11T12:01:56.512Z,21.8
2022-12-11T12:02:58.273Z,21.8
2022-12-11T12:04:03.208Z,21.8
2022-12-11T12:05:04.856Z,21.8
2022-12-11T12:06:06.981Z,21.8
2022-12-11T12:07:16.916Z,21.8
2022-12-11T12:08:18.720Z,21.8
2022-12-11T12:09:21.081Z,21.8
2022-12-11T12:10:23.180Z,21.8
2022-12-11T12:11:24.825Z,21.8
2022-12-11T12:12:29.792Z,21.8
2022-12-11T12:13:50.974Z,21.8
2022-12-11T12:14:53.982Z,21.8
2022-12-11T12:15:55.934Z,21.8
2022-12-11T12:16:57.920Z,21.8
2022-12-11T12:18:00.162Z,21.8
2022-12-11T12:19:01.960Z,21.9
2022-12-11T12:20:03.701Z,21.8
2022-12-11T12:21:05.467Z,21.8
2022-12-11T12:22:07.115Z,21.8
2022-12-11T12:23:08.934Z,21.8
2022-12-11T12:24:10.696Z,21.8
2022-12-11T12:25:12.832Z,21.8
2022-12-11T12:26:15.812Z,21.8
2022-12-11T12:27:43.581Z,21.8
2022-12-11T12:28:54.924Z,21.8
2022-12-11T12:29:56.900Z,21.8
2022-12-11T12:30:58.682Z,21.9
2022-12-11T12:32:00.523Z,21.9
2022-12-11T12:33:02.474Z,21.9
2022-12-11T12:34:04.254Z,21.8
2022-12-11T12:35:06.063Z,21.8
2022-12-11T12:36:07.720Z,21.8
2022-12-11T12:37:09.372Z,21.8
2022-12-11T12:38:11.045Z,21.8
2022-12-11T12:39:12.833Z,21.8
2022-12-11T12:40:14.530Z,21.8
2022-12-11T12:41:16.359Z,21.8
2022-12-11T12:42:18.188Z,21.8
2022-12-11T12:43:22.564Z,21.8
2022-12-11T12:44:24.527Z,21.8
2022-12-11T12:45:26.856Z,21.8
2022-12-11T12:46:28.880Z,21.8
2022-12-11T12:47:30.699Z,21.8
2022-12-11T12:48:32.552Z,21.8
2022-12-11T12:49:34.327Z,21.8
2022-12-11T12:50:36.159Z,21.8
2022-12-11T12:51:37.927Z,21.8
2022-12-11T12:52:39.545Z,21.8
2022-12-11T12:53:41.355Z,21.8
2022-12-11T12:54:43.230Z,21.7
2022-12-11T12:55:44.985Z,21.7
2022-12-11T12:56:46.633Z,21.7
2022-12-11T12:57:48.390Z,21.7
2022-12-11T12:58:50.129Z,21.7
2022-12-11T12:59:51.827Z,21.7
2022-12-11T13:00:53.782Z,21.7
2022-12-11T13:01:55.899Z,21.7
2022-12-11T13:02:57.946Z,21.7
2022-12-11T13:03:59.788Z,21.7
2022-12-11T13:05:01.551Z,21.7
2022-12-11T13:06:03.388Z,21.6
2022-12-11T13:07:05.085Z,21.6
2022-12-11T13:08:06.825Z,21.6
2022-12-11T13:09:08.935Z,21.6
2022-12-11T13:10:10.530Z,21.6
2022-12-11T13:11:12.400Z,21.6
2022-12-11T13:12:14.197Z,21.6
2022-12-11T13:13:16.043Z,21.6
2022-12-11T13:14:17.882Z,21.6
2022-12-11T13:15:19.573Z,21.6
2022-12-11T13:16:21.500Z,21.6
2022-12-11T13:17:23.560Z,21.6
2022-12-11T13:18:25.219Z,21.6
2022-12-11T13:19:27.079Z,21.6
2022-12-11T13:20:28.928Z,21.5
2022-12-11T13:21:30.822Z,21.5
2022-12-11T13:22:32.561Z,21.5
2022-12-11T13:23:34.315Z,21.5
2022-12-11T13:24:36.053Z,21.5
2022-12-11T13:25:41.627Z,21.5
2022-12-11T13:26:43.378Z,21.5
2022-12-11T13:27:45.108Z,21.5
2022-12-11T13:28:46.901Z,21.5
2022-12-11T13:29:48.621Z,21.5
2022-12-11T13:30:54.258Z,21.4
2022-12-11T13:31:59.179Z,21.5
2022-12-11T13:33:01.244Z,21.5
2022-12-11T13:34:02.961Z,21.5
2022-12-11T13:35:04.647Z,21.5
2022-12-11T13:36:09.880Z,21.4
2022-12-11T13:37:26.503Z,21.4
2022-12-11T13:38:28.288Z,21.4
2022-12-11T13:39:30.036Z,21.4
2022-12-11T13:40:31.878Z,21.4
2022-12-11T13:41:33.683Z,21.4
2022-12-11T13:42:35.458Z,21.4
2022-12-11T13:43:37.234Z,21.4
2022-12-11T13:44:39.083Z,21.4
2022-12-11T13:45:40.881Z,21.4
2022-12-11T13:46:42.889Z,21.4
2022-12-11T13:47:44.623Z,21.4
2022-12-11T13:48:46.435Z,21.3
2022-12-11T13:49:48.307Z,21.3
2022-12-11T13:50:50.058Z,21.3
2022-12-11T13:51:51.856Z,21.3